sensor_id;sensor_type;location;lat;lon;timestamp;P1;durP1;ratioP1;P2;durP2;ratioP2
21492;SDS011;10908;50.690;4.400;2022-07-30T00:01:49;6.93;;;2.90;;
21492;SDS011;10908;50.690;4.400;2022-07-30T00:04:15;9.23;;;3.20;;
21492;SDS011;10908;50.690;4.400;2022-07-30T00:06:41;9.02;;;3.92;;
21492;SDS011;10908;50.690;4.400;2022-07-30T00:09:07;10.02;;;2.90;;
21492;SDS011;10908;50.690;4.400;2022-07-30T00:11:32;8.43;;;3.15;;
21492;SDS011;10908;50.690;4.400;2022-07-30T00:13:58;7.82;;;3.30;;
21492;SDS011;10908;50.690;4.400;2022-07-30T00:16:24;10.02;;;3.30;;
21492;SDS011;10908;50.690;4.400;2022-07-30T00:18:50;10.68;;;3.28;;
21492;SDS011;10908;50.690;4.400;2022-07-30T00:21:16;7.50;;;3.17;;
21492;SDS011;10908;50.690;4.400;2022-07-30T00:23:42;9.75;;;3.40;;
21492;SDS011;10908;50.690;4.400;2022-07-30T00:26:07;9.18;;;3.78;;
21492;SDS011;10908;50.690;4.400;2022-07-30T00:28:33;9.65;;;4.20;;
21492;SDS011;10908;50.690;4.400;2022-07-30T00:30:59;13.77;;;4.90;;
21492;SDS011;10908;50.690;4.400;2022-07-30T00:33:25;11.38;;;3.85;;
21492;SDS011;10908;50.690;4.400;2022-07-30T00:35:51;11.57;;;3.92;;
21492;SDS011;10908;50.690;4.400;2022-07-30T00:38:16;10.63;;;3.90;;
21492;SDS011;10908;50.690;4.400;2022-07-30T00:40:42;11.52;;;3.90;;
21492;SDS011;10908;50.690;4.400;2022-07-30T00:43:12;9.98;;;3.10;;
21492;SDS011;10908;50.690;4.400;2022-07-30T00:45:42;10.30;;;4.18;;
21492;SDS011;10908;50.690;4.400;2022-07-30T00:48:09;8.20;;;3.60;;
21492;SDS011;10908;50.690;4.400;2022-07-30T00:50:35;9.93;;;3.60;;
21492;SDS011;10908;50.690;4.400;2022-07-30T00:53:02;10.48;;;3.80;;
21492;SDS011;10908;50.690;4.400;2022-07-30T00:55:28;9.50;;;3.92;;
21492;SDS011;10908;50.690;4.400;2022-07-30T00:57:54;12.35;;;3.70;;
21492;SDS011;10908;50.690;4.400;2022-07-30T01:00:19;10.02;;;3.90;;
21492;SDS011;10908;50.690;4.400;2022-07-30T01:02:45;12.13;;;4.25;;
21492;SDS011;10908;50.690;4.400;2022-07-30T01:05:14;11.18;;;4.00;;
21492;SDS011;10908;50.690;4.400;2022-07-30T01:07:40;11.95;;;3.83;;
21492;SDS011;10908;50.690;4.400;2022-07-30T01:10:07;13.30;;;4.78;;
21492;SDS011;10908;50.690;4.400;2022-07-30T01:12:34;7.45;;;3.83;;
21492;SDS011;10908;50.690;4.400;2022-07-30T01:15:01;10.57;;;3.45;;
21492;SDS011;10908;50.690;4.400;2022-07-30T01:17:30;8.25;;;3.35;;
21492;SDS011;10908;50.690;4.400;2022-07-30T01:19:58;10.95;;;3.95;;
21492;SDS011;10908;50.690;4.400;2022-07-30T01:27:34;10.13;;;4.60;;
21492;SDS011;10908;50.690;4.400;2022-07-30T01:30:05;8.77;;;4.25;;
21492;SDS011;10908;50.690;4.400;2022-07-30T01:32:33;10.40;;;3.72;;
21492;SDS011;10908;50.690;4.400;2022-07-30T01:35:01;13.00;;;4.55;;
21492;SDS011;10908;50.690;4.400;2022-07-30T01:37:29;12.70;;;4.85;;
21492;SDS011;10908;50.690;4.400;2022-07-30T01:39:57;10.45;;;4.47;;
21492;SDS011;10908;50.690;4.400;2022-07-30T01:42:23;9.68;;;4.43;;
21492;SDS011;10908;50.690;4.400;2022-07-30T01:44:52;12.15;;;5.30;;
21492;SDS011;10908;50.690;4.400;2022-07-30T01:47:19;10.60;;;4.35;;
21492;SDS011;10908;50.690;4.400;2022-07-30T01:49:46;9.85;;;4.38;;
21492;SDS011;10908;50.690;4.400;2022-07-30T01:52:15;9.55;;;4.40;;
21492;SDS011;10908;50.690;4.400;2022-07-30T01:54:43;11.35;;;4.38;;
21492;SDS011;10908;50.690;4.400;2022-07-30T01:57:10;12.00;;;4.95;;
21492;SDS011;10908;50.690;4.400;2022-07-30T01:59:38;10.95;;;5.13;;
21492;SDS011;10908;50.690;4.400;2022-07-30T02:02:05;9.63;;;5.07;;
21492;SDS011;10908;50.690;4.400;2022-07-30T02:04:31;10.02;;;4.90;;
21492;SDS011;10908;50.690;4.400;2022-07-30T02:07:15;9.55;;;4.50;;
21492;SDS011;10908;50.690;4.400;2022-07-30T02:10:11;8.82;;;4.32;;
21492;SDS011;10908;50.690;4.400;2022-07-30T02:12:51;7.57;;;4.00;;
21492;SDS011;10908;50.690;4.400;2022-07-30T02:18:27;10.68;;;4.47;;
21492;SDS011;10908;50.690;4.400;2022-07-30T02:20:58;8.23;;;4.25;;
21492;SDS011;10908;50.690;4.400;2022-07-30T02:23:30;8.77;;;4.72;;
21492;SDS011;10908;50.690;4.400;2022-07-30T02:26:00;9.68;;;4.70;;
21492;SDS011;10908;50.690;4.400;2022-07-30T02:28:27;11.80;;;5.47;;
21492;SDS011;10908;50.690;4.400;2022-07-30T02:30:57;12.73;;;5.15;;
21492;SDS011;10908;50.690;4.400;2022-07-30T02:33:26;13.18;;;5.38;;
21492;SDS011;10908;50.690;4.400;2022-07-30T02:35:55;12.15;;;4.95;;
21492;SDS011;10908;50.690;4.400;2022-07-30T02:38:23;10.85;;;5.53;;
21492;SDS011;10908;50.690;4.400;2022-07-30T02:40:52;13.45;;;5.75;;
21492;SDS011;10908;50.690;4.400;2022-07-30T02:43:21;14.30;;;5.75;;
21492;SDS011;10908;50.690;4.400;2022-07-30T02:45:50;11.52;;;5.68;;
21492;SDS011;10908;50.690;4.400;2022-07-30T02:48:16;10.85;;;5.30;;
21492;SDS011;10908;50.690;4.400;2022-07-30T02:50:45;16.10;;;6.63;;
21492;SDS011;10908;50.690;4.400;2022-07-30T02:53:14;16.35;;;6.63;;
21492;SDS011;10908;50.690;4.400;2022-07-30T02:55:42;16.33;;;7.85;;
21492;SDS011;10908;50.690;4.400;2022-07-30T02:58:09;11.90;;;6.43;;
21492;SDS011;10908;50.690;4.400;2022-07-30T03:00:36;12.82;;;6.40;;
21492;SDS011;10908;50.690;4.400;2022-07-30T03:03:03;9.55;;;5.75;;
21492;SDS011;10908;50.690;4.400;2022-07-30T03:05:31;13.30;;;6.45;;
21492;SDS011;10908;50.690;4.400;2022-07-30T03:07:58;14.23;;;6.60;;
21492;SDS011;10908;50.690;4.400;2022-07-30T03:10:24;10.57;;;6.68;;
21492;SDS011;10908;50.690;4.400;2022-07-30T03:12:52;13.73;;;6.72;;
21492;SDS011;10908;50.690;4.400;2022-07-30T03:15:20;11.15;;;6.93;;
21492;SDS011;10908;50.690;4.400;2022-07-30T03:17:48;12.68;;;6.97;;
21492;SDS011;10908;50.690;4.400;2022-07-30T03:20:17;14.10;;;7.22;;
21492;SDS011;10908;50.690;4.400;2022-07-30T03:22:46;12.82;;;6.60;;
21492;SDS011;10908;50.690;4.400;2022-07-30T03:25:15;15.27;;;6.90;;
21492;SDS011;10908;50.690;4.400;2022-07-30T03:27:54;13.32;;;6.90;;
21492;SDS011;10908;50.690;4.400;2022-07-30T03:30:22;18.83;;;7.78;;
21492;SDS011;10908;50.690;4.400;2022-07-30T03:32:50;14.48;;;7.38;;
21492;SDS011;10908;50.690;4.400;2022-07-30T03:35:17;14.50;;;7.53;;
21492;SDS011;10908;50.690;4.400;2022-07-30T03:37:46;13.55;;;7.43;;
21492;SDS011;10908;50.690;4.400;2022-07-30T03:40:12;14.50;;;7.72;;
21492;SDS011;10908;50.690;4.400;2022-07-30T03:42:39;16.30;;;8.13;;
21492;SDS011;10908;50.690;4.400;2022-07-30T03:45:05;12.48;;;7.07;;
21492;SDS011;10908;50.690;4.400;2022-07-30T03:47:33;19.13;;;9.02;;
21492;SDS011;10908;50.690;4.400;2022-07-30T03:50:03;14.95;;;7.72;;
21492;SDS011;10908;50.690;4.400;2022-07-30T03:52:31;14.70;;;7.82;;
21492;SDS011;10908;50.690;4.400;2022-07-30T03:54:58;13.93;;;7.88;;
21492;SDS011;10908;50.690;4.400;2022-07-30T03:57:26;16.85;;;8.60;;
21492;SDS011;10908;50.690;4.400;2022-07-30T03:59:52;17.10;;;8.73;;
21492;SDS011;10908;50.690;4.400;2022-07-30T04:02:18;17.88;;;9.60;;
21492;SDS011;10908;50.690;4.400;2022-07-30T04:04:43;14.95;;;8.38;;
21492;SDS011;10908;50.690;4.400;2022-07-30T04:07:09;13.55;;;8.40;;
21492;SDS011;10908;50.690;4.400;2022-07-30T04:09:35;12.68;;;8.18;;
21492;SDS011;10908;50.690;4.400;2022-07-30T04:12:01;14.30;;;8.32;;
21492;SDS011;10908;50.690;4.400;2022-07-30T04:14:32;16.63;;;8.40;;
21492;SDS011;10908;50.690;4.400;2022-07-30T04:17:17;12.60;;;7.60;;
21492;SDS011;10908;50.690;4.400;2022-07-30T04:20:01;13.57;;;7.53;;
21492;SDS011;10908;50.690;4.400;2022-07-30T04:22:32;15.40;;;7.93;;
21492;SDS011;10908;50.690;4.400;2022-07-30T04:25:00;15.63;;;7.88;;
21492;SDS011;10908;50.690;4.400;2022-07-30T04:27:27;14.35;;;7.88;;
21492;SDS011;10908;50.690;4.400;2022-07-30T04:29:54;16.48;;;7.40;;
21492;SDS011;10908;50.690;4.400;2022-07-30T04:32:20;12.65;;;6.90;;
21492;SDS011;10908;50.690;4.400;2022-07-30T04:34:50;14.38;;;7.70;;
21492;SDS011;10908;50.690;4.400;2022-07-30T04:37:18;15.02;;;7.88;;
21492;SDS011;10908;50.690;4.400;2022-07-30T04:39:45;15.35;;;7.90;;
21492;SDS011;10908;50.690;4.400;2022-07-30T04:42:14;14.30;;;7.05;;
21492;SDS011;10908;50.690;4.400;2022-07-30T04:44:40;13.95;;;8.02;;
21492;SDS011;10908;50.690;4.400;2022-07-30T04:47:06;13.20;;;7.07;;
21492;SDS011;10908;50.690;4.400;2022-07-30T04:49:32;10.27;;;6.35;;
21492;SDS011;10908;50.690;4.400;2022-07-30T04:51:59;12.80;;;6.50;;
21492;SDS011;10908;50.690;4.400;2022-07-30T04:54:26;15.55;;;7.38;;
21492;SDS011;10908;50.690;4.400;2022-07-30T04:56:57;11.45;;;7.68;;
21492;SDS011;10908;50.690;4.400;2022-07-30T04:59:23;13.20;;;8.10;;
21492;SDS011;10908;50.690;4.400;2022-07-30T05:01:49;13.98;;;8.38;;
21492;SDS011;10908;50.690;4.400;2022-07-30T05:04:16;13.98;;;8.07;;
21492;SDS011;10908;50.690;4.400;2022-07-30T05:06:44;16.27;;;8.65;;
21492;SDS011;10908;50.690;4.400;2022-07-30T05:09:10;18.17;;;9.13;;
21492;SDS011;10908;50.690;4.400;2022-07-30T05:11:38;15.10;;;8.75;;
21492;SDS011;10908;50.690;4.400;2022-07-30T05:14:04;15.90;;;9.60;;
21492;SDS011;10908;50.690;4.400;2022-07-30T05:16:30;15.60;;;10.32;;
21492;SDS011;10908;50.690;4.400;2022-07-30T05:18:58;23.60;;;11.30;;
21492;SDS011;10908;50.690;4.400;2022-07-30T05:21:24;17.42;;;10.68;;
21492;SDS011;10908;50.690;4.400;2022-07-30T05:23:50;19.35;;;12.65;;
21492;SDS011;10908;50.690;4.400;2022-07-30T05:26:19;19.52;;;12.48;;
21492;SDS011;10908;50.690;4.400;2022-07-30T05:28:46;20.13;;;12.15;;
21492;SDS011;10908;50.690;4.400;2022-07-30T05:31:11;22.27;;;11.77;;
21492;SDS011;10908;50.690;4.400;2022-07-30T05:33:37;20.98;;;12.45;;
21492;SDS011;10908;50.690;4.400;2022-07-30T05:36:03;21.70;;;13.60;;
21492;SDS011;10908;50.690;4.400;2022-07-30T05:38:29;21.02;;;14.10;;
21492;SDS011;10908;50.690;4.400;2022-07-30T05:40:54;24.58;;;14.23;;
21492;SDS011;10908;50.690;4.400;2022-07-30T05:43:20;21.23;;;14.05;;
21492;SDS011;10908;50.690;4.400;2022-07-30T05:45:45;22.65;;;13.82;;
21492;SDS011;10908;50.690;4.400;2022-07-30T05:48:11;24.48;;;15.07;;
21492;SDS011;10908;50.690;4.400;2022-07-30T05:50:37;22.23;;;14.23;;
21492;SDS011;10908;50.690;4.400;2022-07-30T05:53:02;29.02;;;16.40;;
21492;SDS011;10908;50.690;4.400;2022-07-30T05:55:28;25.75;;;15.75;;
21492;SDS011;10908;50.690;4.400;2022-07-30T05:57:54;25.55;;;15.70;;
21492;SDS011;10908;50.690;4.400;2022-07-30T06:00:19;25.10;;;16.27;;
21492;SDS011;10908;50.690;4.400;2022-07-30T06:02:45;27.02;;;17.13;;
21492;SDS011;10908;50.690;4.400;2022-07-30T06:05:11;24.42;;;15.98;;
21492;SDS011;10908;50.690;4.400;2022-07-30T06:07:36;23.98;;;16.02;;
21492;SDS011;10908;50.690;4.400;2022-07-30T06:10:02;24.45;;;15.15;;
21492;SDS011;10908;50.690;4.400;2022-07-30T06:12:29;24.98;;;15.73;;
21492;SDS011;10908;50.690;4.400;2022-07-30T06:14:55;30.75;;;16.10;;
21492;SDS011;10908;50.690;4.400;2022-07-30T06:17:21;24.75;;;15.93;;
21492;SDS011;10908;50.690;4.400;2022-07-30T06:19:47;26.33;;;15.32;;
21492;SDS011;10908;50.690;4.400;2022-07-30T06:22:13;24.15;;;15.43;;
21492;SDS011;10908;50.690;4.400;2022-07-30T06:24:39;25.42;;;15.10;;
21492;SDS011;10908;50.690;4.400;2022-07-30T06:27:04;24.92;;;14.90;;
21492;SDS011;10908;50.690;4.400;2022-07-30T06:29:30;24.02;;;15.05;;
21492;SDS011;10908;50.690;4.400;2022-07-30T06:31:56;23.92;;;12.70;;
21492;SDS011;10908;50.690;4.400;2022-07-30T06:34:21;20.02;;;12.40;;
21492;SDS011;10908;50.690;4.400;2022-07-30T06:36:47;19.05;;;11.85;;
21492;SDS011;10908;50.690;4.400;2022-07-30T06:39:13;20.13;;;11.25;;
21492;SDS011;10908;50.690;4.400;2022-07-30T06:41:39;23.77;;;12.25;;
21492;SDS011;10908;50.690;4.400;2022-07-30T06:44:05;21.83;;;12.35;;
21492;SDS011;10908;50.690;4.400;2022-07-30T06:46:30;19.80;;;11.93;;
21492;SDS011;10908;50.690;4.400;2022-07-30T06:48:56;17.58;;;11.38;;
21492;SDS011;10908;50.690;4.400;2022-07-30T06:51:22;17.65;;;10.32;;
21492;SDS011;10908;50.690;4.400;2022-07-30T06:53:47;17.48;;;10.27;;
21492;SDS011;10908;50.690;4.400;2022-07-30T06:56:13;20.20;;;9.93;;
21492;SDS011;10908;50.690;4.400;2022-07-30T06:58:39;16.05;;;10.40;;
21492;SDS011;10908;50.690;4.400;2022-07-30T07:01:05;16.95;;;10.25;;
21492;SDS011;10908;50.690;4.400;2022-07-30T07:03:31;15.73;;;9.25;;
21492;SDS011;10908;50.690;4.400;2022-07-30T07:05:56;15.60;;;7.93;;
21492;SDS011;10908;50.690;4.400;2022-07-30T07:08:22;18.58;;;8.60;;
21492;SDS011;10908;50.690;4.400;2022-07-30T07:10:48;14.13;;;6.90;;
21492;SDS011;10908;50.690;4.400;2022-07-30T07:13:14;14.93;;;7.57;;
21492;SDS011;10908;50.690;4.400;2022-07-30T07:15:39;15.75;;;7.07;;
21492;SDS011;10908;50.690;4.400;2022-07-30T07:18:06;15.52;;;6.72;;
21492;SDS011;10908;50.690;4.400;2022-07-30T07:20:32;14.75;;;6.43;;
21492;SDS011;10908;50.690;4.400;2022-07-30T07:22:59;15.55;;;6.50;;
21492;SDS011;10908;50.690;4.400;2022-07-30T07:25:24;10.80;;;6.03;;
21492;SDS011;10908;50.690;4.400;2022-07-30T07:27:50;10.68;;;5.57;;
21492;SDS011;10908;50.690;4.400;2022-07-30T07:30:16;10.45;;;4.90;;
21492;SDS011;10908;50.690;4.400;2022-07-30T07:32:42;14.70;;;4.40;;
21492;SDS011;10908;50.690;4.400;2022-07-30T07:35:07;10.00;;;4.47;;
21492;SDS011;10908;50.690;4.400;2022-07-30T07:37:33;11.25;;;4.55;;
21492;SDS011;10908;50.690;4.400;2022-07-30T07:39:59;8.85;;;3.58;;
21492;SDS011;10908;50.690;4.400;2022-07-30T07:42:25;11.35;;;5.05;;
21492;SDS011;10908;50.690;4.400;2022-07-30T07:44:51;10.20;;;5.30;;
21492;SDS011;10908;50.690;4.400;2022-07-30T07:47:16;12.57;;;5.35;;
21492;SDS011;10908;50.690;4.400;2022-07-30T07:49:42;7.47;;;3.45;;
21492;SDS011;10908;50.690;4.400;2022-07-30T07:52:08;6.88;;;2.80;;
21492;SDS011;10908;50.690;4.400;2022-07-30T07:54:33;9.52;;;3.15;;
21492;SDS011;10908;50.690;4.400;2022-07-30T07:56:59;7.50;;;2.95;;
21492;SDS011;10908;50.690;4.400;2022-07-30T07:59:25;6.32;;;2.75;;
21492;SDS011;10908;50.690;4.400;2022-07-30T08:01:51;8.93;;;3.53;;
21492;SDS011;10908;50.690;4.400;2022-07-30T08:04:16;7.10;;;2.67;;
21492;SDS011;10908;50.690;4.400;2022-07-30T08:06:42;8.98;;;3.03;;
21492;SDS011;10908;50.690;4.400;2022-07-30T08:09:08;9.30;;;3.08;;
21492;SDS011;10908;50.690;4.400;2022-07-30T08:11:33;8.48;;;3.30;;
21492;SDS011;10908;50.690;4.400;2022-07-30T08:13:59;7.63;;;3.03;;
21492;SDS011;10908;50.690;4.400;2022-07-30T08:16:24;7.05;;;3.25;;
21492;SDS011;10908;50.690;4.400;2022-07-30T08:18:50;7.93;;;3.00;;
21492;SDS011;10908;50.690;4.400;2022-07-30T08:21:16;9.27;;;3.38;;
21492;SDS011;10908;50.690;4.400;2022-07-30T08:23:41;7.78;;;2.90;;
21492;SDS011;10908;50.690;4.400;2022-07-30T08:26:07;8.80;;;3.00;;
21492;SDS011;10908;50.690;4.400;2022-07-30T08:28:34;9.48;;;2.60;;
21492;SDS011;10908;50.690;4.400;2022-07-30T08:31:00;7.18;;;2.60;;
21492;SDS011;10908;50.690;4.400;2022-07-30T08:33:26;8.43;;;2.47;;
21492;SDS011;10908;50.690;4.400;2022-07-30T08:35:51;5.18;;;2.22;;
21492;SDS011;10908;50.690;4.400;2022-07-30T08:38:17;6.93;;;2.42;;
21492;SDS011;10908;50.690;4.400;2022-07-30T08:40:43;8.75;;;2.50;;
21492;SDS011;10908;50.690;4.400;2022-07-30T08:43:09;6.75;;;2.15;;
21492;SDS011;10908;50.690;4.400;2022-07-30T08:45:35;6.00;;;1.70;;
21492;SDS011;10908;50.690;4.400;2022-07-30T08:48:01;9.88;;;2.53;;
21492;SDS011;10908;50.690;4.400;2022-07-30T08:50:31;7.38;;;2.10;;
21492;SDS011;10908;50.690;4.400;2022-07-30T08:52:58;7.30;;;1.70;;
21492;SDS011;10908;50.690;4.400;2022-07-30T08:55:26;6.35;;;1.95;;
21492;SDS011;10908;50.690;4.400;2022-07-30T08:57:52;5.68;;;2.00;;
21492;SDS011;10908;50.690;4.400;2022-07-30T09:00:19;6.72;;;1.70;;
21492;SDS011;10908;50.690;4.400;2022-07-30T09:02:45;6.38;;;1.70;;
21492;SDS011;10908;50.690;4.400;2022-07-30T09:05:11;5.88;;;1.65;;
21492;SDS011;10908;50.690;4.400;2022-07-30T09:07:37;5.55;;;1.80;;
21492;SDS011;10908;50.690;4.400;2022-07-30T09:10:05;5.43;;;1.92;;
21492;SDS011;10908;50.690;4.400;2022-07-30T09:20:22;8.00;;;1.85;;
21492;SDS011;10908;50.690;4.400;2022-07-30T09:22:50;5.90;;;2.03;;
21492;SDS011;10908;50.690;4.400;2022-07-30T09:25:33;4.90;;;1.58;;
21492;SDS011;10908;50.690;4.400;2022-07-30T09:28:07;5.13;;;1.50;;
21492;SDS011;10908;50.690;4.400;2022-07-30T09:30:55;7.32;;;1.65;;
21492;SDS011;10908;50.690;4.400;2022-07-30T09:33:30;5.97;;;1.92;;
21492;SDS011;10908;50.690;4.400;2022-07-30T09:35:56;5.20;;;1.60;;
21492;SDS011;10908;50.690;4.400;2022-07-30T09:38:22;5.65;;;1.63;;
21492;SDS011;10908;50.690;4.400;2022-07-30T09:40:55;3.92;;;1.50;;
21492;SDS011;10908;50.690;4.400;2022-07-30T09:43:22;4.35;;;1.58;;
21492;SDS011;10908;50.690;4.400;2022-07-30T09:45:49;5.07;;;1.30;;
21492;SDS011;10908;50.690;4.400;2022-07-30T09:48:21;5.40;;;1.30;;
21492;SDS011;10908;50.690;4.400;2022-07-30T09:50:49;5.03;;;1.52;;
21492;SDS011;10908;50.690;4.400;2022-07-30T09:53:15;8.60;;;1.50;;
21492;SDS011;10908;50.690;4.400;2022-07-30T09:55:41;7.80;;;1.98;;
21492;SDS011;10908;50.690;4.400;2022-07-30T09:58:07;4.82;;;1.55;;
21492;SDS011;10908;50.690;4.400;2022-07-30T10:00:35;11.68;;;1.77;;
21492;SDS011;10908;50.690;4.400;2022-07-30T10:03:13;6.13;;;1.80;;
21492;SDS011;10908;50.690;4.400;2022-07-30T10:05:50;7.68;;;1.73;;
21492;SDS011;10908;50.690;4.400;2022-07-30T10:08:39;4.07;;;1.55;;
21492;SDS011;10908;50.690;4.400;2022-07-30T10:11:08;9.07;;;1.63;;
21492;SDS011;10908;50.690;4.400;2022-07-30T10:13:36;6.53;;;1.70;;
21492;SDS011;10908;50.690;4.400;2022-07-30T10:16:03;6.95;;;1.63;;
21492;SDS011;10908;50.690;4.400;2022-07-30T10:18:30;6.00;;;1.85;;
21492;SDS011;10908;50.690;4.400;2022-07-30T10:20:57;5.63;;;1.60;;
21492;SDS011;10908;50.690;4.400;2022-07-30T10:23:25;6.30;;;1.35;;
21492;SDS011;10908;50.690;4.400;2022-07-30T10:25:56;5.55;;;1.88;;
21492;SDS011;10908;50.690;4.400;2022-07-30T10:28:26;4.47;;;1.38;;
21492;SDS011;10908;50.690;4.400;2022-07-30T10:30:54;7.85;;;1.50;;
21492;SDS011;10908;50.690;4.400;2022-07-30T10:33:22;5.95;;;1.70;;
21492;SDS011;10908;50.690;4.400;2022-07-30T10:35:50;8.00;;;1.83;;
21492;SDS011;10908;50.690;4.400;2022-07-30T10:38:17;4.80;;;1.40;;
21492;SDS011;10908;50.690;4.400;2022-07-30T10:40:49;8.70;;;2.15;;
21492;SDS011;10908;50.690;4.400;2022-07-30T10:43:26;5.53;;;1.60;;
21492;SDS011;10908;50.690;4.400;2022-07-30T10:46:22;6.28;;;1.35;;
21492;SDS011;10908;50.690;4.400;2022-07-30T10:48:51;3.10;;;1.23;;
21492;SDS011;10908;50.690;4.400;2022-07-30T10:51:16;6.47;;;1.75;;
21492;SDS011;10908;50.690;4.400;2022-07-30T10:53:43;5.80;;;1.67;;
21492;SDS011;10908;50.690;4.400;2022-07-30T11:02:33;6.38;;;1.10;;
21492;SDS011;10908;50.690;4.400;2022-07-30T11:04:32;5.03;;;1.30;;
21492;SDS011;10908;50.690;4.400;2022-07-30T11:09:46;6.20;;;1.60;;
21492;SDS011;10908;50.690;4.400;2022-07-30T11:12:50;4.82;;;1.30;;
21492;SDS011;10908;50.690;4.400;2022-07-30T11:15:08;6.10;;;1.30;;
21492;SDS011;10908;50.690;4.400;2022-07-30T11:20:27;5.50;;;1.40;;
21492;SDS011;10908;50.690;4.400;2022-07-30T11:22:54;6.65;;;1.20;;
21492;SDS011;10908;50.690;4.400;2022-07-30T11:25:44;4.22;;;1.52;;
21492;SDS011;10908;50.690;4.400;2022-07-30T11:33:51;5.85;;;1.48;;
21492;SDS011;10908;50.690;4.400;2022-07-30T11:36:16;4.13;;;1.50;;
21492;SDS011;10908;50.690;4.400;2022-07-30T11:38:49;4.28;;;1.30;;
21492;SDS011;10908;50.690;4.400;2022-07-30T11:41:22;5.93;;;1.40;;
21492;SDS011;10908;50.690;4.400;2022-07-30T11:43:47;5.20;;;1.50;;
21492;SDS011;10908;50.690;4.400;2022-07-30T11:46:33;7.93;;;1.63;;
21492;SDS011;10908;50.690;4.400;2022-07-30T11:49:00;5.07;;;1.42;;
21492;SDS011;10908;50.690;4.400;2022-07-30T11:51:39;4.72;;;1.60;;
21492;SDS011;10908;50.690;4.400;2022-07-30T11:54:11;5.57;;;1.40;;
21492;SDS011;10908;50.690;4.400;2022-07-30T11:56:47;5.70;;;1.50;;
21492;SDS011;10908;50.690;4.400;2022-07-30T11:59:14;5.68;;;1.50;;
21492;SDS011;10908;50.690;4.400;2022-07-30T12:01:40;5.18;;;1.30;;
21492;SDS011;10908;50.690;4.400;2022-07-30T12:04:07;4.80;;;1.25;;
21492;SDS011;10908;50.690;4.400;2022-07-30T12:06:33;3.88;;;1.20;;
21492;SDS011;10908;50.690;4.400;2022-07-30T12:09:08;5.70;;;1.40;;
21492;SDS011;10908;50.690;4.400;2022-07-30T12:11:33;5.75;;;1.67;;
21492;SDS011;10908;50.690;4.400;2022-07-30T12:14:01;4.40;;;1.23;;
21492;SDS011;10908;50.690;4.400;2022-07-30T12:16:28;5.78;;;1.20;;
21492;SDS011;10908;50.690;4.400;2022-07-30T12:18:59;4.90;;;1.30;;
21492;SDS011;10908;50.690;4.400;2022-07-30T12:21:30;4.22;;;1.50;;
21492;SDS011;10908;50.690;4.400;2022-07-30T12:23:57;7.53;;;1.77;;
21492;SDS011;10908;50.690;4.400;2022-07-30T12:26:31;5.93;;;1.45;;
21492;SDS011;10908;50.690;4.400;2022-07-30T12:28:59;5.97;;;1.50;;
21492;SDS011;10908;50.690;4.400;2022-07-30T12:31:26;8.50;;;1.60;;
21492;SDS011;10908;50.690;4.400;2022-07-30T12:33:52;5.80;;;1.42;;
21492;SDS011;10908;50.690;4.400;2022-07-30T12:36:27;6.70;;;1.70;;
21492;SDS011;10908;50.690;4.400;2022-07-30T12:38:55;4.80;;;1.30;;
21492;SDS011;10908;50.690;4.400;2022-07-30T12:41:22;11.23;;;2.15;;
21492;SDS011;10908;50.690;4.400;2022-07-30T12:44:04;5.45;;;1.50;;
21492;SDS011;10908;50.690;4.400;2022-07-30T12:46:35;5.72;;;1.25;;
21492;SDS011;10908;50.690;4.400;2022-07-30T12:49:05;5.93;;;1.50;;
21492;SDS011;10908;50.690;4.400;2022-07-30T12:51:33;5.00;;;1.40;;
21492;SDS011;10908;50.690;4.400;2022-07-30T12:54:13;6.82;;;1.42;;
21492;SDS011;10908;50.690;4.400;2022-07-30T12:57:01;3.97;;;1.30;;
21492;SDS011;10908;50.690;4.400;2022-07-30T12:59:29;4.85;;;1.30;;
21492;SDS011;10908;50.690;4.400;2022-07-30T13:01:55;9.38;;;1.50;;
21492;SDS011;10908;50.690;4.400;2022-07-30T13:04:24;4.78;;;1.20;;
21492;SDS011;10908;50.690;4.400;2022-07-30T13:07:09;4.57;;;1.35;;
21492;SDS011;10908;50.690;4.400;2022-07-30T13:09:37;5.18;;;1.42;;
21492;SDS011;10908;50.690;4.400;2022-07-30T13:12:10;4.50;;;1.30;;
21492;SDS011;10908;50.690;4.400;2022-07-30T13:14:37;8.10;;;1.33;;
21492;SDS011;10908;50.690;4.400;2022-07-30T13:17:03;5.15;;;1.38;;
21492;SDS011;10908;50.690;4.400;2022-07-30T13:19:29;5.78;;;1.30;;
21492;SDS011;10908;50.690;4.400;2022-07-30T13:21:55;11.15;;;1.60;;
21492;SDS011;10908;50.690;4.400;2022-07-30T13:24:20;5.80;;;1.50;;
21492;SDS011;10908;50.690;4.400;2022-07-30T13:26:46;4.22;;;1.30;;
21492;SDS011;10908;50.690;4.400;2022-07-30T13:29:12;9.10;;;1.35;;
21492;SDS011;10908;50.690;4.400;2022-07-30T13:31:38;3.65;;;1.40;;
21492;SDS011;10908;50.690;4.400;2022-07-30T13:34:05;5.00;;;1.30;;
21492;SDS011;10908;50.690;4.400;2022-07-30T13:36:32;8.93;;;1.40;;
21492;SDS011;10908;50.690;4.400;2022-07-30T13:38:58;5.85;;;1.35;;
21492;SDS011;10908;50.690;4.400;2022-07-30T13:41:23;4.82;;;1.27;;
21492;SDS011;10908;50.690;4.400;2022-07-30T13:43:49;5.15;;;1.45;;
21492;SDS011;10908;50.690;4.400;2022-07-30T13:46:15;6.43;;;1.67;;
21492;SDS011;10908;50.690;4.400;2022-07-30T13:48:40;6.07;;;1.52;;
21492;SDS011;10908;50.690;4.400;2022-07-30T13:51:06;3.80;;;1.35;;
21492;SDS011;10908;50.690;4.400;2022-07-30T13:53:32;6.78;;;1.60;;
21492;SDS011;10908;50.690;4.400;2022-07-30T13:55:57;5.10;;;1.33;;
21492;SDS011;10908;50.690;4.400;2022-07-30T13:58:23;5.00;;;1.15;;
21492;SDS011;10908;50.690;4.400;2022-07-30T14:00:49;5.95;;;1.10;;
21492;SDS011;10908;50.690;4.400;2022-07-30T14:03:15;5.25;;;1.40;;
21492;SDS011;10908;50.690;4.400;2022-07-30T14:05:40;4.10;;;1.20;;
21492;SDS011;10908;50.690;4.400;2022-07-30T14:08:06;5.45;;;1.40;;
21492;SDS011;10908;50.690;4.400;2022-07-30T14:10:33;5.50;;;1.02;;
21492;SDS011;10908;50.690;4.400;2022-07-30T14:13:01;6.70;;;1.17;;
21492;SDS011;10908;50.690;4.400;2022-07-30T14:15:28;5.50;;;1.20;;
21492;SDS011;10908;50.690;4.400;2022-07-30T14:17:57;4.28;;;1.10;;
21492;SDS011;10908;50.690;4.400;2022-07-30T14:20:24;8.13;;;1.80;;
21492;SDS011;10908;50.690;4.400;2022-07-30T14:22:50;4.80;;;1.35;;
21492;SDS011;10908;50.690;4.400;2022-07-30T14:25:16;6.25;;;1.20;;
21492;SDS011;10908;50.690;4.400;2022-07-30T14:27:43;3.75;;;1.10;;
21492;SDS011;10908;50.690;4.400;2022-07-30T14:30:08;3.60;;;1.25;;
21492;SDS011;10908;50.690;4.400;2022-07-30T14:32:35;4.00;;;1.00;;
21492;SDS011;10908;50.690;4.400;2022-07-30T14:35:01;5.88;;;1.20;;
21492;SDS011;10908;50.690;4.400;2022-07-30T14:37:27;4.72;;;1.13;;
21492;SDS011;10908;50.690;4.400;2022-07-30T14:39:53;4.57;;;1.30;;
21492;SDS011;10908;50.690;4.400;2022-07-30T14:42:19;5.20;;;1.33;;
21492;SDS011;10908;50.690;4.400;2022-07-30T14:44:45;2.72;;;1.10;;
21492;SDS011;10908;50.690;4.400;2022-07-30T14:47:11;4.85;;;1.20;;
21492;SDS011;10908;50.690;4.400;2022-07-30T14:49:37;5.18;;;1.38;;
21492;SDS011;10908;50.690;4.400;2022-07-30T14:52:03;5.32;;;1.55;;
21492;SDS011;10908;50.690;4.400;2022-07-30T14:54:29;7.72;;;1.35;;
21492;SDS011;10908;50.690;4.400;2022-07-30T14:56:55;4.90;;;1.20;;
21492;SDS011;10908;50.690;4.400;2022-07-30T14:59:21;4.82;;;1.45;;
21492;SDS011;10908;50.690;4.400;2022-07-30T15:01:47;6.70;;;2.05;;
21492;SDS011;10908;50.690;4.400;2022-07-30T15:04:13;7.80;;;1.70;;
21492;SDS011;10908;50.690;4.400;2022-07-30T15:06:39;5.47;;;1.77;;
21492;SDS011;10908;50.690;4.400;2022-07-30T15:09:06;6.65;;;1.92;;
21492;SDS011;10908;50.690;4.400;2022-07-30T15:11:32;6.47;;;1.95;;
21492;SDS011;10908;50.690;4.400;2022-07-30T15:13:58;5.90;;;1.80;;
21492;SDS011;10908;50.690;4.400;2022-07-30T15:16:26;8.10;;;2.08;;
21492;SDS011;10908;50.690;4.400;2022-07-30T15:18:52;6.13;;;1.90;;